createdAt,value
2017-10-09T00:00:59.171Z,97.41
2017-10-09T00:01:59.146Z,97.97
2017-10-09T00:02:59.125Z,98.02
2017-10-09T00:03:59.100Z,97.97
2017-10-09T00:04:59.078Z,97.97
2017-10-09T00:05:59.051Z,98.21
2017-10-09T00:07:04.057Z,98.31
2017-10-09T00:07:59.003Z,98.21
2017-10-09T00:08:58.977Z,98.31
2017-10-09T00:09:58.644Z,98.12
2017-10-09T00:10:58.924Z,98.12
2017-10-09T00:11:58.901Z,98.21
2017-10-09T00:12:58.879Z,98.12
2017-10-09T00:13:58.851Z,98.12
2017-10-09T00:14:58.828Z,98.02
2017-10-09T00:15:58.805Z,98.02
2017-10-09T00:16:58.780Z,98.12
2017-10-09T00:17:58.766Z,98.02
2017-10-09T00:18:58.731Z,97.74
2017-10-09T00:19:58.709Z,97.55
2017-10-09T00:20:58.687Z,98.02
2017-10-09T00:21:58.656Z,98.02
2017-10-09T00:22:58.633Z,97.74
2017-10-09T00:23:58.611Z,97.74
2017-10-09T00:24:58.584Z,98.12
2017-10-09T00:25:58.560Z,97.74
2017-10-09T00:26:58.541Z,97.83
2017-10-09T00:27:58.512Z,97.83
2017-10-09T00:28:58.179Z,97.74
2017-10-09T00:29:58.464Z,97.74
2017-10-09T00:30:58.434Z,97.92
2017-10-09T00:31:58.416Z,97.92
2017-10-09T00:32:58.391Z,98.21
2017-10-09T00:33:58.366Z,98.02
2017-10-09T00:34:58.344Z,97.83
2017-10-09T00:35:58.315Z,97.92
2017-10-09T00:36:58.292Z,98.12
2017-10-09T00:37:58.265Z,98.02
2017-10-09T00:38:58.239Z,98.02
2017-10-09T00:39:58.220Z,97.83
2017-10-09T00:40:58.191Z,97.92
2017-10-09T00:41:58.167Z,98.02
2017-10-09T00:42:58.142Z,97.83
2017-10-09T00:43:58.120Z,98.02
2017-10-09T00:44:58.092Z,98.12
2017-10-09T00:45:58.073Z,97.74
2017-10-09T00:46:58.048Z,97.74
2017-10-09T00:47:58.019Z,97.74
2017-10-09T00:48:57.995Z,97.92
2017-10-09T00:49:57.972Z,97.74
2017-10-09T00:50:57.945Z,97.74
2017-10-09T00:51:57.922Z,97.74
2017-10-09T00:52:57.900Z,97.92
2017-10-09T00:53:57.561Z,97.83
2017-10-09T00:54:57.848Z,98.21
2017-10-09T00:55:57.832Z,97.92
2017-10-09T00:56:57.807Z,97.74
2017-10-09T00:57:57.774Z,98.12
2017-10-09T00:58:57.749Z,98.31
2017-10-09T00:59:57.724Z,98.21
2017-10-09T01:00:57.699Z,98.21
2017-10-09T01:01:57.681Z,98.21
2017-10-09T01:02:57.657Z,98.12
2017-10-09T01:03:57.624Z,98.4
2017-10-09T01:04:57.606Z,98.21
2017-10-09T01:05:57.578Z,98.21
2017-10-09T01:06:57.557Z,98.02
2017-10-09T01:07:57.530Z,97.92
2017-10-09T01:08:57.509Z,98.21
2017-10-09T01:09:57.489Z,98.69
2017-10-09T01:10:57.454Z,98.02
2017-10-09T01:11:57.432Z,98.21
2017-10-09T01:12:57.412Z,97.92
2017-10-09T01:13:57.385Z,97.83
2017-10-09T01:14:57.357Z,98.21
2017-10-09T01:15:57.332Z,97.92
2017-10-09T01:16:57.307Z,98.12
2017-10-09T01:17:57.288Z,98.4
2017-10-09T01:18:57.258Z,98.21
2017-10-09T01:19:57.236Z,98.02
2017-10-09T01:20:57.208Z,98.02
2017-10-09T01:21:57.189Z,98.02
2017-10-09T01:22:57.161Z,98.36
2017-10-09T01:23:57.137Z,98.36
2017-10-09T01:24:57.121Z,98.17
2017-10-09T01:25:57.088Z,98.36
2017-10-09T01:26:56.761Z,97.97
2017-10-09T01:27:57.044Z,98.07
2017-10-09T01:28:57.015Z,98.26
2017-10-09T01:29:56.999Z,98.17
2017-10-09T01:30:56.962Z,97.97
2017-10-09T01:31:56.943Z,97.88
2017-10-09T01:32:56.919Z,98.07
2017-10-09T01:33:56.900Z,98.07
2017-10-09T01:34:56.865Z,98.26
2017-10-09T01:35:56.846Z,97.78
2017-10-09T01:36:56.819Z,97.5
2017-10-09T01:37:56.793Z,97.6
2017-10-09T01:38:56.772Z,97.97
2017-10-09T01:39:56.745Z,97.6
2017-10-09T01:40:56.722Z,97.5
2017-10-09T01:41:56.700Z,97.69
2017-10-09T01:42:56.675Z,97.6
2017-10-09T01:43:56.650Z,97.78
2017-10-09T01:44:56.625Z,97.78
2017-10-09T01:45:56.603Z,97.69
2017-10-09T01:46:56.577Z,97.88
2017-10-09T01:47:56.555Z,97.6
2017-10-09T01:48:56.524Z,97.69
2017-10-09T01:49:56.194Z,97.64
2017-10-09T01:50:56.479Z,97.88
2017-10-09T01:51:56.454Z,97.78
2017-10-09T01:52:56.433Z,97.41
2017-10-09T01:53:56.415Z,97.78
2017-10-09T01:54:56.381Z,97.69
2017-10-09T01:55:56.365Z,97.78
2017-10-09T01:56:56.334Z,97.83
2017-10-09T01:57:56.310Z,97.69
2017-10-09T01:58:56.286Z,97.78
2017-10-09T01:59:56.267Z,97.6
2017-10-09T02:00:56.240Z,97.6
2017-10-09T02:01:56.212Z,97.64
2017-10-09T02:02:56.199Z,97.41
2017-10-09T02:03:56.166Z,97.64
2017-10-09T02:04:56.143Z,97.97
2017-10-09T02:05:56.120Z,97.97
2017-10-09T02:06:56.100Z,97.97
2017-10-09T02:07:56.079Z,97.78
2017-10-09T02:08:56.047Z,97.78
2017-10-09T02:09:55.716Z,97.97
2017-10-09T02:10:55.996Z,97.78
2017-10-09T02:11:55.969Z,97.31
2017-10-09T02:12:55.951Z,97.88
2017-10-09T02:13:55.929Z,97.97
2017-10-09T02:14:55.902Z,97.6
2017-10-09T02:15:55.875Z,97.88
2017-10-09T02:16:55.850Z,97.6
2017-10-09T02:17:55.829Z,97.78
2017-10-09T02:18:55.802Z,97.69
2017-10-09T02:19:55.778Z,97.6
2017-10-09T02:20:55.759Z,97.97
2017-10-09T02:21:55.738Z,97.78
2017-10-09T02:22:55.709Z,97.78
2017-10-09T02:23:55.683Z,97.97
2017-10-09T02:24:55.656Z,97.6
2017-10-09T02:25:55.326Z,97.6
2017-10-09T02:26:55.611Z,97.6
2017-10-09T02:27:55.583Z,97.78
2017-10-09T02:28:55.564Z,97.78
2017-10-09T02:29:55.544Z,97.97
2017-10-09T02:30:55.511Z,97.88
2017-10-09T02:31:55.486Z,97.97
2017-10-09T02:32:55.469Z,97.97
2017-10-09T02:33:55.437Z,98.07
2017-10-09T02:34:55.418Z,97.97
2017-10-09T02:35:55.390Z,97.97
2017-10-09T02:36:55.370Z,97.97
2017-10-09T02:37:55.344Z,98.07
2017-10-09T02:38:55.323Z,98.07
2017-10-09T02:39:55.292Z,97.88
2017-10-09T02:40:55.269Z,97.97
2017-10-09T02:41:55.245Z,97.88
2017-10-09T02:42:55.221Z,97.97
2017-10-09T02:43:55.196Z,97.97
2017-10-09T02:44:55.174Z,97.97
2017-10-09T02:45:55.147Z,98.07
2017-10-09T02:46:55.120Z,97.97
2017-10-09T02:47:55.102Z,97.97
2017-10-09T02:48:55.091Z,97.97
2017-10-09T02:49:55.050Z,98.07
2017-10-09T02:50:55.023Z,97.97
2017-10-09T02:51:55.006Z,97.88
2017-10-09T02:52:54.671Z,97.97
2017-10-09T02:53:54.953Z,97.88
2017-10-09T02:54:54.930Z,97.97
2017-10-09T02:55:54.902Z,97.78
2017-10-09T02:56:54.883Z,97.88
2017-10-09T02:57:54.858Z,97.78
2017-10-09T02:58:54.833Z,97.78
2017-10-09T02:59:54.808Z,97.97
2017-10-09T03:00:54.790Z,97.88
2017-10-09T03:01:54.759Z,97.78
2017-10-09T03:02:54.736Z,97.78
2017-10-09T03:03:54.711Z,97.78
2017-10-09T03:04:54.691Z,98.07
2017-10-09T03:05:54.664Z,98.26
2017-10-09T03:06:54.637Z,98.26
2017-10-09T03:07:54.616Z,97.69
2017-10-09T03:08:54.590Z,98.07
2017-10-09T03:09:54.565Z,97.97
2017-10-09T03:10:54.542Z,98.07
2017-10-09T03:11:54.513Z,98.17
2017-10-09T03:12:54.494Z,97.69
2017-10-09T03:13:54.466Z,97.78
2017-10-09T03:14:54.439Z,97.88
2017-10-09T03:15:54.422Z,97.88
2017-10-09T03:16:54.389Z,98.07
2017-10-09T03:17:54.376Z,97.78
2017-10-09T03:18:54.344Z,97.88
2017-10-09T03:19:54.319Z,98.26
2017-10-09T03:20:54.297Z,98.36
2017-10-09T03:21:54.273Z,98.17
2017-10-09T03:22:54.245Z,97.78
2017-10-09T03:23:54.222Z,97.88
2017-10-09T03:24:54.194Z,98.17
2017-10-09T03:25:54.177Z,97.74
2017-10-09T03:26:54.148Z,97.92
2017-10-09T03:27:54.126Z,98.07
2017-10-09T03:28:53.794Z,98.26
2017-10-09T03:29:54.076Z,98.17
2017-10-09T03:30:54.051Z,98.12
2017-10-09T03:31:54.027Z,98.31
2017-10-09T03:32:54.003Z,97.92
2017-10-09T03:33:53.981Z,97.92
2017-10-09T03:34:53.953Z,98.02
2017-10-09T03:35:53.928Z,98.12
2017-10-09T03:36:53.903Z,98.12
2017-10-09T03:37:53.879Z,97.92
2017-10-09T03:38:53.858Z,97.83
2017-10-09T03:39:53.829Z,98.4
2017-10-09T03:40:53.808Z,97.83
2017-10-09T03:41:53.778Z,98.21
2017-10-09T03:42:53.757Z,98.21
2017-10-09T03:43:53.733Z,98.21
2017-10-09T03:44:53.715Z,98.02
2017-10-09T03:45:53.681Z,98.4
2017-10-09T03:46:53.659Z,98.02
2017-10-09T03:47:53.637Z,98.02
2017-10-09T03:48:53.612Z,98.4
2017-10-09T03:49:53.579Z,97.83
2017-10-09T03:50:53.567Z,98.69
2017-10-09T03:51:53.532Z,98.59
2017-10-09T03:52:53.509Z,98.5
2017-10-09T03:53:53.484Z,98.88
2017-10-09T03:54:53.456Z,98.26
2017-10-09T03:55:53.435Z,98.35
2017-10-09T03:56:53.412Z,98.35
2017-10-09T03:57:53.389Z,98.35
2017-10-09T03:58:53.358Z,98.54
2017-10-09T03:59:53.337Z,98.83
2017-10-09T04:00:53.311Z,99.02
2017-10-09T04:01:53.294Z,98.64
2017-10-09T04:02:53.261Z,98.35
2017-10-09T04:03:53.244Z,98.26
2017-10-09T04:04:52.907Z,98.92
2017-10-09T04:05:53.188Z,98.64
2017-10-09T04:06:53.162Z,98.73
2017-10-09T04:07:53.137Z,98.45
2017-10-09T04:08:53.114Z,98.64
2017-10-09T04:09:53.116Z,98.73
2017-10-09T04:10:53.063Z,98.69
2017-10-09T04:11:53.042Z,98.35
2017-10-09T04:12:53.015Z,98.54
2017-10-09T04:13:52.988Z,98.88
2017-10-09T04:14:52.962Z,98.64
2017-10-09T04:15:52.943Z,98.5
2017-10-09T04:16:52.920Z,98.64
2017-10-09T04:17:52.893Z,98.64
2017-10-09T04:18:52.866Z,98.54
2017-10-09T04:19:52.842Z,98.64
2017-10-09T04:20:52.811Z,98.73
2017-10-09T04:21:52.800Z,98.26
2017-10-09T04:22:52.766Z,98.26
2017-10-09T04:23:52.744Z,98.45
2017-10-09T04:24:52.716Z,98.35
2017-10-09T04:25:52.691Z,98.21
2017-10-09T04:26:52.665Z,98.45
2017-10-09T04:27:52.640Z,98.45
2017-10-09T04:28:52.619Z,98.26
2017-10-09T04:29:52.286Z,98.45
2017-10-09T04:30:52.571Z,98.45
2017-10-09T04:31:52.543Z,98.5
2017-10-09T04:32:52.523Z,98.5
2017-10-09T04:33:52.491Z,98.4
2017-10-09T04:34:52.468Z,98.59
2017-10-09T04:35:52.447Z,98.5
2017-10-09T04:36:52.421Z,98.5
2017-10-09T04:37:52.400Z,98.31
2017-10-09T04:38:52.371Z,98.5
2017-10-09T04:39:52.344Z,98.5
2017-10-09T04:40:52.325Z,98.5
2017-10-09T04:41:52.293Z,98.31
2017-10-09T04:42:52.273Z,98.5
2017-10-09T04:43:52.456Z,98.31
2017-10-09T04:44:52.217Z,98.31
2017-10-09T04:45:52.206Z,98.21
2017-10-09T04:46:52.175Z,98.21
2017-10-09T04:47:52.148Z,98.31
2017-10-09T04:48:52.123Z,98.5
2017-10-09T04:49:52.101Z,98.12
2017-10-09T04:50:52.074Z,98.21
2017-10-09T04:51:52.049Z,98.12
2017-10-09T04:52:52.026Z,98.79
2017-10-09T04:53:51.997Z,98.4
2017-10-09T04:54:51.983Z,98.4
2017-10-09T04:55:51.953Z,98.59
2017-10-09T04:56:51.931Z,98.69
2017-10-09T04:57:51.902Z,98.5
2017-10-09T04:58:51.880Z,98.5
2017-10-09T04:59:51.851Z,98.59
2017-10-09T05:00:51.836Z,98.59
2017-10-09T05:01:51.807Z,98.69
2017-10-09T05:02:51.782Z,98.5
2017-10-09T05:03:51.753Z,98.5
2017-10-09T05:04:51.730Z,98.69
2017-10-09T05:05:51.706Z,98.69
2017-10-09T05:06:51.688Z,98.69
2017-10-09T05:07:51.656Z,98.69
2017-10-09T05:08:51.636Z,98.5
2017-10-09T05:09:51.612Z,98.5
2017-10-09T05:10:51.587Z,98.5
2017-10-09T05:11:51.559Z,98.79
2017-10-09T05:12:51.535Z,98.69
2017-10-09T05:13:51.512Z,98.69
2017-10-09T05:14:51.481Z,98.79
2017-10-09T05:15:51.457Z,98.69
2017-10-09T05:16:51.439Z,98.21
2017-10-09T05:17:51.409Z,98.69
2017-10-09T05:18:51.387Z,98.79
2017-10-09T05:19:51.362Z,98.69
2017-10-09T05:20:51.340Z,98.79
2017-10-09T05:21:51.314Z,98.31
2017-10-09T05:22:51.289Z,98.79
2017-10-09T05:23:50.962Z,98.4
2017-10-09T05:24:51.239Z,98.69
2017-10-09T05:25:51.213Z,98.21
2017-10-09T05:26:51.189Z,98.69
2017-10-09T05:27:51.168Z,98.69
2017-10-09T05:28:51.145Z,98.59
2017-10-09T05:29:51.113Z,97.74
2017-10-09T05:30:51.094Z,98.69
2017-10-09T05:31:50.758Z,98.69
2017-10-09T05:32:51.041Z,98.69
2017-10-09T05:33:51.018Z,98.88
2017-10-09T05:34:50.990Z,98.69
2017-10-09T05:35:50.976Z,98.21
2017-10-09T05:36:50.946Z,98.79
2017-10-09T05:37:50.921Z,98.12
2017-10-09T05:38:50.900Z,98.12
2017-10-09T05:39:50.875Z,98.69
2017-10-09T05:40:50.847Z,98.4
2017-10-09T05:41:50.823Z,98.02
2017-10-09T05:42:50.798Z,98.12
2017-10-09T05:43:50.772Z,98.12
2017-10-09T05:44:50.744Z,98.31
2017-10-09T05:45:50.726Z,98.12
2017-10-09T05:46:50.704Z,98.12
2017-10-09T05:47:50.675Z,98.12
2017-10-09T05:48:50.344Z,98.12
2017-10-09T05:49:50.623Z,98.31
2017-10-09T05:50:50.603Z,97.92
2017-10-09T05:51:50.577Z,98.31
2017-10-09T05:52:50.553Z,97.92
2017-10-09T05:53:50.526Z,98.02
2017-10-09T05:54:50.505Z,98.12
2017-10-09T05:55:50.477Z,98.12
2017-10-09T05:56:50.454Z,98.21
2017-10-09T05:57:50.433Z,98.21
2017-10-09T05:58:50.402Z,97.97
2017-10-09T05:59:50.382Z,98.17
2017-10-09T06:00:50.365Z,98.17
2017-10-09T06:01:50.334Z,98.17
2017-10-09T06:02:50.309Z,98.17
2017-10-09T06:03:50.284Z,98.07
2017-10-09T06:04:50.258Z,97.97
2017-10-09T06:05:50.231Z,97.78
2017-10-09T06:06:50.208Z,97.78
2017-10-09T06:07:50.183Z,97.78
2017-10-09T06:08:50.156Z,97.97
2017-10-09T06:09:50.140Z,97.6
2017-10-09T06:10:50.109Z,97.69
2017-10-09T06:11:49.782Z,98.07
2017-10-09T06:12:50.062Z,97.69
2017-10-09T06:13:50.040Z,97.78
2017-10-09T06:14:50.013Z,97.78
2017-10-09T06:15:49.991Z,98.07
2017-10-09T06:16:49.968Z,97.97
2017-10-09T06:17:49.944Z,97.69
2017-10-09T06:18:49.920Z,97.6
2017-10-09T06:19:50.116Z,98.07
2017-10-09T06:20:49.872Z,97.78
2017-10-09T06:21:49.850Z,97.97
2017-10-09T06:22:49.821Z,97.97
2017-10-09T06:23:49.799Z,98.12
2017-10-09T06:24:49.784Z,98.26
2017-10-09T06:25:49.751Z,97.93
2017-10-09T06:26:49.724Z,97.74
2017-10-09T06:27:49.697Z,97.83
2017-10-09T06:28:49.678Z,97.45
2017-10-09T06:29:49.650Z,97.55
2017-10-09T06:30:49.633Z,97.5
2017-10-09T06:31:49.608Z,97.45
2017-10-09T06:32:49.586Z,97.69
2017-10-09T06:33:49.561Z,97.79
2017-10-09T06:34:49.536Z,97.22
2017-10-09T06:35:49.515Z,97.22
2017-10-09T06:36:49.487Z,97.22
2017-10-09T06:37:49.164Z,97.22
2017-10-09T06:38:49.438Z,97.13
2017-10-09T06:39:49.416Z,97.41
2017-10-09T06:40:49.427Z,97.31
2017-10-09T06:41:49.374Z,97.31
2017-10-09T06:42:49.362Z,97.31
2017-10-09T06:43:49.317Z,97.31
2017-10-09T06:44:49.294Z,97.69
2017-10-09T06:45:49.277Z,97.41
2017-10-09T06:46:49.256Z,97.41
2017-10-09T06:47:48.923Z,97.69
2017-10-09T06:48:49.202Z,97.41
2017-10-09T06:49:49.186Z,97.5
2017-10-09T06:50:49.157Z,97.36
2017-10-09T06:51:49.140Z,97.6
2017-10-09T06:52:49.107Z,97.31
2017-10-09T06:53:49.089Z,97.45
2017-10-09T06:54:49.063Z,97.41
2017-10-09T06:55:49.038Z,97.5
2017-10-09T06:56:49.015Z,97.5
2017-10-09T06:57:48.684Z,97.88
2017-10-09T06:58:48.975Z,97.88
2017-10-09T06:59:48.945Z,97.31
2017-10-09T07:00:48.932Z,97.5
2017-10-09T07:01:48.898Z,97.5
2017-10-09T07:02:48.878Z,97.69
2017-10-09T07:03:48.857Z,97.6
2017-10-09T07:04:48.828Z,97.6
2017-10-09T07:05:48.806Z,97.41
2017-10-09T07:06:48.782Z,97.41
2017-10-09T07:07:48.765Z,97.41
2017-10-09T07:08:48.733Z,97.31
2017-10-09T07:09:48.707Z,97.31
2017-10-09T07:10:48.688Z,97.03
2017-10-09T07:11:48.353Z,97.22
2017-10-09T07:12:48.636Z,97.13
2017-10-09T07:13:48.614Z,97.31
2017-10-09T07:14:48.592Z,97.13
2017-10-09T07:15:48.585Z,97.31
2017-10-09T07:16:48.549Z,97.41
2017-10-09T07:17:48.523Z,97.36
2017-10-09T07:18:48.496Z,97.31
2017-10-09T07:19:48.480Z,97.41
2017-10-09T07:20:48.144Z,97.46
2017-10-09T07:21:48.435Z,97.65
2017-10-09T07:22:48.407Z,97.36
2017-10-09T07:23:48.382Z,97.27
2017-10-09T07:24:48.357Z,96.89
2017-10-09T07:25:48.333Z,97.17
2017-10-09T07:26:48.310Z,96.98
2017-10-09T07:27:48.289Z,97.17
2017-10-09T07:28:48.265Z,97.08
2017-10-09T07:29:48.241Z,97.08
2017-10-09T07:30:48.222Z,97.36
2017-10-09T07:31:48.195Z,97.17
2017-10-09T07:32:48.173Z,96.65
2017-10-09T07:33:48.151Z,96.36
2017-10-09T07:34:48.135Z,96.75
2017-10-09T07:35:48.106Z,96.8
2017-10-09T07:36:48.082Z,96.8
2017-10-09T07:37:48.058Z,96.98
2017-10-09T07:38:48.038Z,96.98
2017-10-09T07:39:47.707Z,96.7
2017-10-09T07:40:47.989Z,96.7
2017-10-09T07:41:47.972Z,96.8
2017-10-09T07:42:47.944Z,96.6
2017-10-09T07:43:47.922Z,96.8
2017-10-09T07:44:47.899Z,96.51
2017-10-09T07:45:47.876Z,96.7
2017-10-09T07:46:47.855Z,96.56
2017-10-09T07:47:47.828Z,96.56
2017-10-09T07:48:47.821Z,96.89
2017-10-09T07:49:47.481Z,96.22
2017-10-09T07:50:47.463Z,96.41
2017-10-09T07:51:47.746Z,96.22
2017-10-09T07:52:47.721Z,96.89
2017-10-09T07:53:47.698Z,96.41
2017-10-09T07:54:47.675Z,96.41
2017-10-09T07:55:47.345Z,96.41
2017-10-09T07:56:47.631Z,96.27
2017-10-09T07:57:47.304Z,96.41
2017-10-09T07:58:47.586Z,96.36
2017-10-09T07:59:47.565Z,96.46
2017-10-09T08:00:47.544Z,96.75
2017-10-09T08:01:47.522Z,96.65
2017-10-09T08:02:47.500Z,96.61
2017-10-09T08:03:47.474Z,96.7
2017-10-09T08:04:47.457Z,96.84
2017-10-09T08:05:47.442Z,96.75
2017-10-09T08:06:47.420Z,96.56
2017-10-09T08:07:47.389Z,96.51
2017-10-09T08:08:47.364Z,96.46
2017-10-09T08:09:47.345Z,96.75
2017-10-09T08:10:47.321Z,96.56
2017-10-09T08:11:47.297Z,96.13
2017-10-09T08:12:47.277Z,96.7
2017-10-09T08:13:47.262Z,95.94
2017-10-09T08:14:47.238Z,96.13
2017-10-09T08:15:47.212Z,96.13
2017-10-09T08:16:47.188Z,96.13
2017-10-09T08:17:47.166Z,96.13
2017-10-09T08:18:47.149Z,96.03
2017-10-09T08:19:47.123Z,96.13
2017-10-09T08:20:47.106Z,96.13
2017-10-09T08:21:47.082Z,96.03
2017-10-09T08:22:47.059Z,96.03
2017-10-09T08:23:47.032Z,96.13
2017-10-09T08:24:47.014Z,96.03
2017-10-09T08:25:46.993Z,95.75
2017-10-09T08:26:46.972Z,95.75
2017-10-09T08:27:46.942Z,95.65
2017-10-09T08:28:46.924Z,96.22
2017-10-09T08:29:46.903Z,96.03
2017-10-09T08:30:46.882Z,95.84
2017-10-09T08:31:46.856Z,96.13
2017-10-09T08:32:46.835Z,96.13
2017-10-09T08:33:46.812Z,96.13
2017-10-09T08:34:46.796Z,95.27
2017-10-09T08:35:46.770Z,95.17
2017-10-09T08:36:46.753Z,95.84
2017-10-09T08:37:46.422Z,95.46
2017-10-09T08:38:46.717Z,95.75
2017-10-09T08:39:46.685Z,95.94
2017-10-09T08:40:46.661Z,95.37
2017-10-09T08:41:46.648Z,95.27
2017-10-09T08:42:46.614Z,95.65
2017-10-09T08:43:46.614Z,95.94
2017-10-09T08:44:46.574Z,95.75
2017-10-09T08:45:46.547Z,95.75
2017-10-09T08:46:46.217Z,95.84
2017-10-09T08:47:46.505Z,95.37
2017-10-09T08:48:46.487Z,95.46
2017-10-09T08:49:46.466Z,95.46
2017-10-09T08:50:46.443Z,95.65
2017-10-09T08:51:46.420Z,95.46
2017-10-09T08:52:46.397Z,95.61
2017-10-09T08:53:46.373Z,95.61
2017-10-09T08:54:46.354Z,95.7
2017-10-09T08:55:46.332Z,95.51
2017-10-09T08:56:46.308Z,95.61
2017-10-09T08:57:46.289Z,95.32
2017-10-09T08:58:46.266Z,95.22
2017-10-09T08:59:46.244Z,95.22
2017-10-09T09:00:46.220Z,95.61
2017-10-09T09:01:46.230Z,95.12
2017-10-09T09:02:46.178Z,95.22
2017-10-09T09:03:46.157Z,95.61
2017-10-09T09:04:46.132Z,95.7
2017-10-09T09:05:46.111Z,95.22
2017-10-09T09:06:46.086Z,95.03
2017-10-09T09:07:46.070Z,95.7
2017-10-09T09:08:45.743Z,95.7
2017-10-09T09:09:46.023Z,95.51
2017-10-09T09:10:45.998Z,95.03
2017-10-09T09:11:45.980Z,95.51
2017-10-09T09:12:45.959Z,95.41
2017-10-09T09:13:45.935Z,95.32
2017-10-09T09:14:45.612Z,95.7
2017-10-09T09:15:45.906Z,95.61
2017-10-09T09:16:45.869Z,95.61
2017-10-09T09:17:45.860Z,95.51
2017-10-09T09:18:45.826Z,95.41
2017-10-09T09:19:45.818Z,95.7
2017-10-09T09:20:45.783Z,95.32
2017-10-09T09:21:45.767Z,95.79
2017-10-09T09:22:45.740Z,95.51
2017-10-09T09:23:45.721Z,95.41
2017-10-09T09:24:45.695Z,95.61
2017-10-09T09:25:45.675Z,95.51
2017-10-09T09:26:45.654Z,95.61
2017-10-09T09:27:45.633Z,95.41
2017-10-09T09:28:45.611Z,95.51
2017-10-09T09:29:45.577Z,95.03
2017-10-09T09:30:45.565Z,95.41
2017-10-09T09:31:45.565Z,95.41
2017-10-09T09:32:45.521Z,95.41
2017-10-09T09:33:45.501Z,95.51
2017-10-09T09:34:45.478Z,95.32
2017-10-09T09:35:45.148Z,95.32
2017-10-09T09:36:45.431Z,95.41
2017-10-09T09:37:45.412Z,95.46
2017-10-09T09:38:45.393Z,95.46
2017-10-09T09:39:45.367Z,95.56
2017-10-09T09:40:45.346Z,95.65
2017-10-09T09:41:45.326Z,94.89
2017-10-09T09:42:45.307Z,95.46
2017-10-09T09:43:45.276Z,95.65
2017-10-09T09:44:45.259Z,95.08
2017-10-09T09:45:45.235Z,94.89
2017-10-09T09:46:45.214Z,94.89
2017-10-09T09:47:45.194Z,94.79
2017-10-09T09:48:45.180Z,95.17
2017-10-09T09:49:45.185Z,95.41
2017-10-09T09:50:45.130Z,94.74
2017-10-09T09:51:45.113Z,95.22
2017-10-09T09:52:45.090Z,94.7
2017-10-09T09:53:44.759Z,94.79
2017-10-09T09:54:45.043Z,94.6
2017-10-09T09:55:45.022Z,94.7
2017-10-09T09:56:44.696Z,94.98
2017-10-09T09:57:44.984Z,93.98
2017-10-09T09:58:44.962Z,94.12
2017-10-09T09:59:44.939Z,94.46
2017-10-09T10:00:44.913Z,94.26
2017-10-09T10:01:44.896Z,94.17
2017-10-09T10:02:44.876Z,94.17
2017-10-09T10:03:44.852Z,94.55
2017-10-09T10:04:44.831Z,94.46
2017-10-09T10:05:44.812Z,94.46
2017-10-09T10:06:44.789Z,94.65
2017-10-09T10:07:44.773Z,94.55
2017-10-09T10:08:44.749Z,94.46
2017-10-09T10:09:44.422Z,94.46
2017-10-09T10:10:44.709Z,94.36
2017-10-09T10:11:44.685Z,94.41
2017-10-09T10:12:44.662Z,94.22
2017-10-09T10:13:44.642Z,94.41
2017-10-09T10:14:44.620Z,94.22
2017-10-09T10:15:44.609Z,94.12
2017-10-09T10:16:44.580Z,94.12
2017-10-09T10:17:44.558Z,93.84
2017-10-09T10:18:44.534Z,94.02
2017-10-09T10:19:44.517Z,93.74
2017-10-09T10:20:44.501Z,94.12
2017-10-09T10:21:44.474Z,94.12
2017-10-09T10:22:44.455Z,94.22
2017-10-09T10:23:44.432Z,94.12
2017-10-09T10:24:44.413Z,93.84
2017-10-09T10:25:44.389Z,94.22
2017-10-09T10:26:44.372Z,93.84
2017-10-09T10:27:44.355Z,94.02
2017-10-09T10:28:44.326Z,94.02
2017-10-09T10:29:44.305Z,94.12
2017-10-09T10:30:44.279Z,94.02
2017-10-09T10:31:44.272Z,93.93
2017-10-09T10:32:44.247Z,94.22
2017-10-09T10:33:44.232Z,93.84
2017-10-09T10:34:44.200Z,93.84
2017-10-09T10:35:44.179Z,94.02
2017-10-09T10:36:44.164Z,93.74
2017-10-09T10:37:44.136Z,93.84
2017-10-09T10:38:44.113Z,94.31
2017-10-09T10:39:44.105Z,94.12
2017-10-09T10:40:44.069Z,94.12
2017-10-09T10:41:44.053Z,94.12
2017-10-09T10:42:44.031Z,94.31
2017-10-09T10:43:44.013Z,93.84
2017-10-09T10:44:43.995Z,94.22
2017-10-09T10:45:43.965Z,93.84
2017-10-09T10:46:43.639Z,94.12
2017-10-09T10:47:43.933Z,94.12
2017-10-09T10:48:43.909Z,94.41
2017-10-09T10:49:43.878Z,94.22
2017-10-09T10:50:43.865Z,94.46
2017-10-09T10:51:43.837Z,94.65
2017-10-09T10:52:43.820Z,94.46
2017-10-09T10:53:43.805Z,93.79
2017-10-09T10:54:43.784Z,93.5
2017-10-09T10:55:43.761Z,93.6
2017-10-09T10:56:43.735Z,93.79
2017-10-09T10:57:43.715Z,93.6
2017-10-09T10:58:43.695Z,94.07
2017-10-09T10:59:43.674Z,93.88
2017-10-09T11:00:43.647Z,94.07
2017-10-09T11:01:43.632Z,93.88
2017-10-09T11:02:43.613Z,94.07
2017-10-09T11:03:43.280Z,94.07
2017-10-09T11:04:43.565Z,94.17
2017-10-09T11:05:43.237Z,93.88
2017-10-09T11:06:43.532Z,93.55
2017-10-09T11:07:43.504Z,93.74
2017-10-09T11:08:43.481Z,93.84
2017-10-09T11:09:43.469Z,93.74
2017-10-09T11:10:43.439Z,94.12
2017-10-09T11:11:43.425Z,93.55
2017-10-09T11:12:43.402Z,93.55
2017-10-09T11:13:43.379Z,93.69
2017-10-09T11:14:43.360Z,93.69
2017-10-09T11:15:43.339Z,93.5
2017-10-09T11:16:43.317Z,93.3
2017-10-09T11:17:43.297Z,93.02
2017-10-09T11:18:43.289Z,93.3
2017-10-09T11:19:43.255Z,93.02
2017-10-09T11:20:43.234Z,92.92
2017-10-09T11:21:43.217Z,93.02
2017-10-09T11:22:43.198Z,92.73
2017-10-09T11:23:43.174Z,93.02
2017-10-09T11:24:43.157Z,92.78
2017-10-09T11:25:43.132Z,92.78
2017-10-09T11:26:43.111Z,92.83
2017-10-09T11:27:42.783Z,92.69
2017-10-09T11:28:43.082Z,92.78
2017-10-09T11:29:43.051Z,92.78
2017-10-09T11:30:43.027Z,92.69
2017-10-09T11:31:43.005Z,92.88
2017-10-09T11:32:42.990Z,93.07
2017-10-09T11:33:42.972Z,92.88
2017-10-09T11:34:42.946Z,92.97
2017-10-09T11:35:42.935Z,93.16
2017-10-09T11:36:42.905Z,92.97
2017-10-09T11:37:42.887Z,92.97
2017-10-09T11:38:42.864Z,93.26
2017-10-09T11:39:42.845Z,92.97
2017-10-09T11:40:42.522Z,93.16
2017-10-09T11:41:42.805Z,93.16
2017-10-09T11:42:42.787Z,92.97
2017-10-09T11:43:42.457Z,93.16
2017-10-09T11:44:42.744Z,93.16
2017-10-09T11:45:42.730Z,93.16
2017-10-09T11:46:42.718Z,92.97
2017-10-09T11:47:42.685Z,92.78
2017-10-09T11:48:42.660Z,92.97
2017-10-09T11:49:42.638Z,93.35
2017-10-09T11:50:42.620Z,93.55
2017-10-09T11:51:42.293Z,93.64
2017-10-09T11:52:42.273Z,92.78
2017-10-09T11:53:42.552Z,93.07
2017-10-09T11:54:42.533Z,92.97
2017-10-09T11:55:42.516Z,93.07
2017-10-09T11:56:42.496Z,92.97
2017-10-09T11:57:42.479Z,93.12
2017-10-09T11:58:42.452Z,92.73
2017-10-09T11:59:42.439Z,93.3
2017-10-09T12:00:42.409Z,92.63
2017-10-09T12:01:42.392Z,92.63
2017-10-09T12:02:42.367Z,92.92
2017-10-09T12:03:42.346Z,92.73
2017-10-09T12:04:42.326Z,92.92
2017-10-09T12:05:42.310Z,93.02
2017-10-09T12:06:41.987Z,92.83
2017-10-09T12:07:42.265Z,92.92
2017-10-09T12:08:42.244Z,92.63
2017-10-09T12:09:42.224Z,93.12
2017-10-09T12:10:42.205Z,92.54
2017-10-09T12:11:42.187Z,92.83
2017-10-09T12:12:42.157Z,92.83
2017-10-09T12:13:42.141Z,92.73
2017-10-09T12:14:42.138Z,92.83
2017-10-09T12:15:42.099Z,93.02
2017-10-09T12:16:42.078Z,92.63
2017-10-09T12:17:41.759Z,92.83
2017-10-09T12:18:42.046Z,92.54
2017-10-09T12:19:42.018Z,92.63
2017-10-09T12:20:42.002Z,92.92
2017-10-09T12:21:42.010Z,92.54
2017-10-09T12:22:41.956Z,93.02
2017-10-09T12:23:41.931Z,92.92
2017-10-09T12:24:41.916Z,92.73
2017-10-09T12:25:41.897Z,93.12
2017-10-09T12:26:41.876Z,93.02
2017-10-09T12:27:41.853Z,92.88
2017-10-09T12:28:41.847Z,92.49
2017-10-09T12:29:41.810Z,92.97
2017-10-09T12:30:41.796Z,92.92
2017-10-09T12:31:41.772Z,93.12
2017-10-09T12:32:41.753Z,93.16
2017-10-09T12:33:41.728Z,92.97
2017-10-09T12:34:41.710Z,92.97
2017-10-09T12:35:41.685Z,93.26
2017-10-09T12:36:41.675Z,93.45
2017-10-09T12:37:41.643Z,92.97
2017-10-09T12:38:41.627Z,93.16
2017-10-09T12:39:41.613Z,93.16
2017-10-09T12:40:41.578Z,93.35
2017-10-09T12:41:41.562Z,93.35
2017-10-09T12:42:41.541Z,93.07
2017-10-09T12:43:41.522Z,93.07
2017-10-09T12:44:41.498Z,93.45
2017-10-09T12:45:41.481Z,93.64
2017-10-09T12:46:41.452Z,93.74
2017-10-09T12:47:41.461Z,93.64
2017-10-09T12:48:41.414Z,93.64
2017-10-09T12:49:41.396Z,93.55
2017-10-09T12:50:41.375Z,93.45
2017-10-09T12:51:41.351Z,93.55
2017-10-09T12:52:41.335Z,93.55
2017-10-09T12:53:41.030Z,93.64
2017-10-09T12:54:41.288Z,93.74
2017-10-09T12:55:41.267Z,93.55